Time;durP1;ratioP1;P1;durP2;ratioP2;P2;SDS_P1;SDS_P2;PMS_P1;PMS_P2;Temp;Humidity;BMP_temperature;BMP_pressure;BME280_temperature;BME280_humidity;BME280_pressure;Samples;Min_cycle;Max_cycle;Signal;HPM_P1;HPM_P2
2023/06/10 07:53:39;;;;;;;;;7.75;7.75;;;;;;;;4997769;28;49978;-66
2023/06/10 07:56:04;;;;;;;;;9.75;8.25;;;;;;;;4986349;28;50150;-68
2023/06/10 07:58:29;;;;;;;;;7.75;7.75;;;;;;;;4989773;28;49846;-69
2023/06/10 08:00:55;;;;;;;;;10.00;8.50;;;;;;;;4986618;28;50187;-66
2023/06/10 08:03:20;;;;;;;;;7.75;6.75;;;;;;;;4989949;28;49990;-68
2023/06/10 08:05:45;;;;;;;;;7.75;6.25;;;;;;;;4989822;28;50532;-66
2023/06/10 08:08:10;;;;;;;;;9.00;9.00;;;;;;;;4989156;28;49950;-66
2023/06/10 08:10:35;;;;;;;;;6.00;6.00;;;;;;;;4989571;28;49735;-72
2023/06/10 08:13:01;;;;;;;;;7.50;6.50;;;;;;;;4990070;28;49716;-67
2023/06/10 08:15:26;;;;;;;;;6.75;6.75;;;;;;;;4984624;28;50306;-71
2023/06/10 08:17:51;;;;;;;;;9.50;6.75;;;;;;;;4984253;28;49815;-70
2023/06/10 08:20:17;;;;;;;;;7.25;7.25;;;;;;;;4989114;28;49807;-70
2023/06/10 08:22:42;;;;;;;;;6.75;5.50;;;;;;;;4987925;28;50106;-72
2023/06/10 08:25:08;;;;;;;;;8.75;7.00;;;;;;;;4982694;28;49928;-70
2023/06/10 08:27:33;;;;;;;;;8.00;7.50;;;;;;;;4987679;28;49845;-70
2023/06/10 08:30:00;;;;;;;;;7.00;7.00;;;;;;;;4989433;28;49909;-70
2023/06/10 08:32:25;;;;;;;;;7.00;6.75;;;;;;;;4983947;28;50109;-71
2023/06/10 08:34:50;;;;;;;;;6.75;6.00;;;;;;;;4983115;28;50448;-71
2023/06/10 08:37:15;;;;;;;;;5.25;5.00;;;;;;;;4988671;28;49919;-77
2023/06/10 08:39:41;;;;;;;;;7.00;6.00;;;;;;;;4989105;28;50033;-70
2023/06/10 08:42:29;;;;;;;;;11.50;9.50;;;;;;;;4989760;28;50000;-70
2023/06/10 08:44:55;;;;;;;;;8.50;8.50;;;;;;;;4977651;28;51429;-71
2023/06/10 08:47:22;;;;;;;;;6.50;6.50;;;;;;;;4989102;28;49912;-70
2023/06/10 08:49:47;;;;;;;;;11.75;9.25;;;;;;;;4989209;28;50265;-70
2023/06/10 08:52:15;;;;;;;;;10.75;9.75;;;;;;;;4989193;28;49938;-71
2023/06/10 08:54:42;;;;;;;;;9.50;9.50;;;;;;;;4987862;28;50571;-71
2023/06/10 08:57:07;;;;;;;;;9.00;9.00;;;;;;;;4988965;28;49733;-71
2023/06/10 08:59:33;;;;;;;;;6.75;6.75;;;;;;;;4988888;28;50058;-71
2023/06/10 09:01:59;;;;;;;;;8.25;8.25;;;;;;;;4989384;28;49716;-70
2023/06/10 09:04:24;;;;;;;;;7.00;7.00;;;;;;;;4986469;28;50449;-71
2023/06/10 09:06:50;;;;;;;;;10.00;10.00;;;;;;;;4988150;28;49909;-71
2023/06/10 09:09:16;;;;;;;;;8.25;6.25;;;;;;;;4987411;28;49931;-70
2023/06/10 09:11:44;;;;;;;;;11.25;10.75;;;;;;;;4989141;28;49776;-70
2023/06/10 09:14:09;;;;;;;;;9.25;9.25;;;;;;;;4988493;28;51233;-70
2023/06/10 09:16:35;;;;;;;;;8.00;8.00;;;;;;;;4987149;28;49894;-70
2023/06/10 09:19:00;;;;;;;;;3.50;3.50;;;;;;;;4987755;28;49849;-70
2023/06/10 09:21:26;;;;;;;;;9.00;8.00;;;;;;;;4988833;28;49947;-70
2023/06/10 09:23:51;;;;;;;;;10.75;9.50;;;;;;;;4988375;28;50625;-70
2023/06/10 09:26:17;;;;;;;;;10.75;10.75;;;;;;;;4988390;28;49811;-70
2023/06/10 09:28:48;;;;;;;;;6.25;6.25;;;;;;;;4988494;28;50037;-69
2023/06/10 09:31:13;;;;;;;;;9.25;8.75;;;;;;;;4988615;28;49911;-70
2023/06/10 09:33:39;;;;;;;;;7.00;6.00;;;;;;;;4988355;28;50466;-70
2023/06/10 09:36:04;;;;;;;;;4.50;4.50;;;;;;;;4986694;28;50137;-70
2023/06/10 09:38:34;;;;;;;;;7.00;7.00;;;;;;;;4988456;28;50044;-71
2023/06/10 09:41:03;;;;;;;;;8.00;8.00;;;;;;;;4984840;28;50037;-79
2023/06/10 09:43:44;;;;;;;;;7.25;6.00;;;;;;;;4988025;28;49848;-73
2023/06/10 09:46:19;;;;;;;;;6.50;6.50;;;;;;;;4987889;28;50172;-75
2023/06/10 09:48:45;;;;;;;;;5.25;5.25;;;;;;;;4984242;28;49844;-74
2023/06/10 09:51:10;;;;;;;;;7.00;7.00;;;;;;;;4983132;28;50025;-72
2023/06/10 09:53:36;;;;;;;;;6.50;5.75;;;;;;;;4980163;28;50188;-71
2023/06/10 09:56:01;;;;;;;;;7.25;7.25;;;;;;;;4986532;28;49761;-74
2023/06/10 09:58:37;;;;;;;;;7.00;6.75;;;;;;;;4988149;28;49977;-74
2023/06/10 10:01:06;;;;;;;;;6.25;5.75;;;;;;;;4988193;28;49779;-73
2023/06/10 10:03:31;;;;;;;;;7.00;7.00;;;;;;;;4986911;28;51388;-70
2023/06/10 10:06:02;;;;;;;;;7.25;7.25;;;;;;;;4988229;28;50016;-72
2023/06/10 10:08:28;;;;;;;;;8.75;8.75;;;;;;;;4985841;28;50152;-73
2023/06/10 10:10:53;;;;;;;;;7.75;7.00;;;;;;;;4990463;28;49676;-72
2023/06/10 10:13:19;;;;;;;;;7.00;7.00;;;;;;;;4983891;28;50430;-73
2023/06/10 10:15:45;;;;;;;;;11.50;8.75;;;;;;;;4991046;28;49768;-71
2023/06/10 10:18:13;;;;;;;;;6.00;6.00;;;;;;;;4986343;28;49812;-70
2023/06/10 10:20:46;;;;;;;;;4.00;4.00;;;;;;;;4988005;28;50122;-72
2023/06/10 10:23:13;;;;;;;;;9.00;9.00;;;;;;;;4984368;28;51384;-72
2023/06/10 10:25:41;;;;;;;;;6.00;6.00;;;;;;;;4985964;28;50052;-73
2023/06/10 10:28:10;;;;;;;;;9.50;8.50;;;;;;;;4983044;28;49856;-71
2023/06/10 10:30:39;;;;;;;;;6.75;6.75;;;;;;;;4989780;28;49904;-72
2023/06/10 10:33:07;;;;;;;;;6.25;6.25;;;;;;;;4984968;28;50839;-73
2023/06/10 10:35:33;;;;;;;;;9.00;7.25;;;;;;;;4991013;28;49768;-74
2023/06/10 10:37:58;;;;;;;;;5.75;5.00;;;;;;;;4984387;28;49895;-78
2023/06/10 10:40:25;;;;;;;;;6.50;6.50;;;;;;;;4982866;28;50069;-75
2023/06/10 10:42:50;;;;;;;;;8.75;7.75;;;;;;;;4985827;28;51416;-78
2023/06/10 10:45:15;;;;;;;;;7.25;7.25;;;;;;;;4987427;28;49885;-75
2023/06/10 10:47:41;;;;;;;;;6.75;5.75;;;;;;;;4987537;28;49971;-80
2023/06/10 10:50:13;;;;;;;;;4.50;4.50;;;;;;;;4990565;28;49982;-77
2023/06/10 10:52:50;;;;;;;;;6.50;6.50;;;;;;;;4991891;28;49990;-86
2023/06/10 10:55:15;;;;;;;;;7.50;7.50;;;;;;;;4991202;28;50037;-83
2023/06/10 10:57:41;;;;;;;;;7.50;7.50;;;;;;;;4980062;28;50395;-80
2023/06/10 11:00:07;;;;;;;;;7.00;7.00;;;;;;;;4991252;28;49765;-74
2023/06/10 11:02:38;;;;;;;;;8.00;8.00;;;;;;;;4985751;28;51309;-73
2023/06/10 11:05:04;;;;;;;;;7.75;7.50;;;;;;;;4988629;28;49883;-81
2023/06/10 11:07:30;;;;;;;;;11.75;10.25;;;;;;;;4989363;28;49915;-90
2023/06/10 11:09:59;;;;;;;;;7.75;6.00;;;;;;;;4992657;28;49702;-84
2023/06/10 11:12:24;;;;;;;;;9.00;9.00;;;;;;;;4991641;28;50384;-85
2023/06/10 11:14:56;;;;;;;;;9.00;8.25;;;;;;;;4990594;28;49714;-79
2023/06/10 11:17:21;;;;;;;;;4.50;4.50;;;;;;;;4985860;28;49626;-75
2023/06/10 11:19:46;;;;;;;;;9.75;8.50;;;;;;;;4990235;28;49725;-75
2023/06/10 11:22:16;;;;;;;;;6.50;6.00;;;;;;;;4990590;28;50123;-76
2023/06/10 11:24:42;;;;;;;;;7.75;7.75;;;;;;;;4985979;28;49749;-74
2023/06/10 11:27:17;;;;;;;;;7.75;7.75;;;;;;;;4988857;28;49753;-77
2023/06/10 11:29:58;;;;;;;;;7.25;6.25;;;;;;;;4988897;28;49669;-74
2023/06/10 11:32:25;;;;;;;;;8.00;8.00;;;;;;;;4984817;28;50200;-76
2023/06/10 11:34:54;;;;;;;;;6.75;6.75;;;;;;;;4989969;28;49784;-74
2023/06/10 11:37:19;;;;;;;;;6.67;5.00;;;;;;;;4989434;28;50040;-73
2023/06/10 11:39:45;;;;;;;;;10.50;7.50;;;;;;;;4990541;28;50042;-73
2023/06/10 11:42:10;;;;;;;;;6.00;6.00;;;;;;;;4986103;28;50967;-74
2023/06/10 11:44:37;;;;;;;;;4.25;4.25;;;;;;;;4986674;28;49797;-74
2023/06/10 11:47:02;;;;;;;;;8.00;8.00;;;;;;;;4987083;28;49717;-75
2023/06/10 11:49:28;;;;;;;;;9.75;8.25;;;;;;;;4986971;28;49655;-75
2023/06/10 11:51:53;;;;;;;;;8.00;8.00;;;;;;;;4980575;28;50188;-75
2023/06/10 11:54:18;;;;;;;;;9.00;8.25;;;;;;;;4982503;28;50078;-75
2023/06/10 11:56:43;;;;;;;;;8.75;7.75;;;;;;;;4978686;28;49941;-75
2023/06/10 11:59:09;;;;;;;;;9.00;9.00;;;;;;;;4988186;28;50028;-68
2023/06/10 12:01:36;;;;;;;;;57.50;47.00;;;;;;;;4985176;28;50411;-68
2023/06/10 12:04:06;;;;;;;;;9.50;8.25;;;;;;;;4989552;28;50008;-68
2023/06/10 12:06:49;;;;;;;;;21.25;20.50;;;;;;;;4987702;28;49567;-67
2023/06/10 12:09:18;;;;;;;;;18.50;18.00;;;;;;;;4986247;28;50069;-67
2023/06/10 12:11:43;;;;;;;;;9.50;9.25;;;;;;;;4989690;28;49745;-67
2023/06/10 12:14:09;;;;;;;;;7.50;7.50;;;;;;;;4989272;28;49649;-66
2023/06/10 12:16:34;;;;;;;;;8.50;7.50;;;;;;;;4982842;28;50169;-66
2023/06/10 12:19:03;;;;;;;;;12.00;12.00;;;;;;;;4974986;28;50037;-68
2023/06/10 12:21:29;;;;;;;;;11.00;8.75;;;;;;;;4989157;28;50593;-68
2023/06/10 12:24:01;;;;;;;;;32.25;30.00;;;;;;;;4983772;28;49762;-69
2023/06/10 12:26:36;;;;;;;;;11.00;10.00;;;;;;;;4989516;28;50002;-68
2023/06/10 12:29:01;;;;;;;;;8.50;8.50;;;;;;;;4989086;28;50093;-69
2023/06/10 12:31:26;;;;;;;;;10.50;9.50;;;;;;;;4989282;28;51312;-68
2023/06/10 12:34:07;;;;;;;;;11.00;10.50;;;;;;;;4989439;28;49762;-69
2023/06/10 12:36:34;;;;;;;;;10.00;9.50;;;;;;;;4989200;28;49812;-68
2023/06/10 12:39:02;;;;;;;;;6.75;6.25;;;;;;;;4989440;28;49727;-70
2023/06/10 12:41:28;;;;;;;;;8.75;8.75;;;;;;;;4989046;28;50682;-69
2023/06/10 12:43:53;;;;;;;;;10.00;10.00;;;;;;;;4988850;28;49637;-68
2023/06/10 12:46:19;;;;;;;;;46.25;36.25;;;;;;;;4989189;28;50122;-71
2023/06/10 12:48:54;;;;;;;;;16.75;14.00;;;;;;;;4989435;28;50085;-68
2023/06/10 12:51:20;;;;;;;;;20.75;20.75;;;;;;;;4988489;28;51279;-72
2023/06/10 12:53:45;;;;;;;;;9.00;9.00;;;;;;;;4989097;28;49812;-73
2023/06/10 12:56:10;;;;;;;;;8.25;8.25;;;;;;;;4989190;28;49836;-77
2023/06/10 12:58:35;;;;;;;;;5.75;5.75;;;;;;;;4990159;28;50036;-82
2023/06/10 13:01:00;;;;;;;;;7.75;7.75;;;;;;;;4987464;28;51047;-78
2023/06/10 13:03:26;;;;;;;;;14.00;12.75;;;;;;;;4989812;28;49662;-80
2023/06/10 13:05:51;;;;;;;;;13.50;13.50;;;;;;;;4989273;28;49920;-79
2023/06/10 13:08:18;;;;;;;;;9.00;9.00;;;;;;;;4992365;28;49944;-83
2023/06/10 13:10:43;;;;;;;;;16.50;12.50;;;;;;;;4991496;28;50609;-84
2023/06/10 13:13:09;;;;;;;;;14.75;14.00;;;;;;;;4990860;28;49599;-84
2023/06/10 13:15:37;;;;;;;;;17.50;17.50;;;;;;;;4989682;28;49781;-83
2023/06/10 13:18:03;;;;;;;;;10.75;10.75;;;;;;;;4990410;28;49940;-85
2023/06/10 13:20:29;;;;;;;;;8.75;8.75;;;;;;;;4991161;28;51383;-86
2023/06/10 13:22:54;;;;;;;;;9.25;9.25;;;;;;;;4991754;28;49784;-87
2023/06/10 13:25:19;;;;;;;;;9.25;8.25;;;;;;;;4989866;28;49700;-89
2023/06/10 13:27:44;;;;;;;;;5.50;5.50;;;;;;;;4989793;28;49970;-85
2023/06/10 13:30:10;;;;;;;;;8.25;8.25;;;;;;;;4988964;28;51558;-81
2023/06/10 13:32:36;;;;;;;;;7.00;6.75;;;;;;;;4986574;28;49978;-80
2023/06/10 13:35:01;;;;;;;;;7.00;7.00;;;;;;;;4989007;28;49740;-86
2023/06/10 13:37:26;;;;;;;;;10.25;10.25;;;;;;;;4992889;28;49845;-92
2023/06/10 13:39:52;;;;;;;;;6.75;6.50;;;;;;;;4988685;28;50565;-73
2023/06/10 13:42:17;;;;;;;;;7.00;7.00;;;;;;;;4984997;28;49923;-80
2023/06/10 13:44:43;;;;;;;;;10.75;8.25;;;;;;;;4990700;28;49822;-78
2023/06/10 13:47:08;;;;;;;;;9.00;8.25;;;;;;;;4991919;28;49605;-74
2023/06/10 13:49:33;;;;;;;;;8.25;8.00;;;;;;;;4985867;28;50548;-74
2023/06/10 13:51:58;;;;;;;;;7.75;7.25;;;;;;;;4985588;28;49730;-74
2023/06/10 13:54:23;;;;;;;;;7.50;6.75;;;;;;;;4977696;28;50114;-74
2023/06/10 13:56:49;;;;;;;;;11.00;11.00;;;;;;;;4986861;28;50042;-74
2023/06/10 13:59:14;;;;;;;;;9.00;8.50;;;;;;;;4991793;28;50589;-74
2023/06/10 14:01:40;;;;;;;;;6.75;6.75;;;;;;;;4986963;28;49858;-73
2023/06/10 14:04:06;;;;;;;;;10.25;9.00;;;;;;;;4993154;28;49752;-74
2023/06/10 14:06:32;;;;;;;;;7.50;7.50;;;;;;;;4992429;28;50104;-74
2023/06/10 14:08:57;;;;;;;;;7.25;7.25;;;;;;;;4993127;28;51546;-73
2023/06/10 14:11:22;;;;;;;;;8.75;8.75;;;;;;;;4992202;28;49729;-74
2023/06/10 14:13:48;;;;;;;;;8.75;8.75;;;;;;;;4992281;28;49820;-75
2023/06/10 14:16:13;;;;;;;;;8.50;7.00;;;;;;;;4988061;28;50064;-74
2023/06/10 14:18:38;;;;;;;;;8.25;7.50;;;;;;;;4990864;28;50677;-75
2023/06/10 14:21:03;;;;;;;;;9.00;9.00;;;;;;;;4991399;28;49860;-76
2023/06/10 14:23:29;;;;;;;;;10.00;10.00;;;;;;;;4990658;28;49733;-72
2023/06/10 14:25:54;;;;;;;;;12.75;10.50;;;;;;;;4989754;28;50038;-73
2023/06/10 14:28:19;;;;;;;;;8.00;7.00;;;;;;;;4988872;28;50508;-77
2023/06/10 14:30:44;;;;;;;;;7.00;6.75;;;;;;;;4991535;28;49889;-74
2023/06/10 14:33:10;;;;;;;;;9.25;9.25;;;;;;;;4991295;28;50002;-77
2023/06/10 14:35:35;;;;;;;;;7.25;7.25;;;;;;;;4991597;28;49754;-84
2023/06/10 14:38:00;;;;;;;;;9.25;8.00;;;;;;;;4991504;28;50693;-81
2023/06/10 14:40:28;;;;;;;;;8.00;8.00;;;;;;;;4990454;28;50177;-77
2023/06/10 14:42:53;;;;;;;;;8.00;5.75;;;;;;;;4991397;28;49788;-79
2023/06/10 14:45:18;;;;;;;;;8.00;8.00;;;;;;;;4991900;28;50041;-79
2023/06/10 14:47:44;;;;;;;;;8.50;8.50;;;;;;;;4984670;28;51888;-77
2023/06/10 14:50:09;;;;;;;;;5.75;5.00;;;;;;;;4990436;28;49877;-78
2023/06/10 14:52:34;;;;;;;;;8.50;8.00;;;;;;;;4986366;28;49749;-79
2023/06/10 14:54:59;;;;;;;;;5.75;5.75;;;;;;;;4990784;28;50121;-79
2023/06/10 14:57:25;;;;;;;;;7.25;7.25;;;;;;;;4989687;28;51624;-80
2023/06/10 14:59:50;;;;;;;;;6.75;6.75;;;;;;;;4990087;28;49578;-82
2023/06/10 15:02:15;;;;;;;;;12.00;10.25;;;;;;;;4992968;28;49987;-83
2023/06/10 15:04:40;;;;;;;;;9.00;9.00;;;;;;;;4989827;28;49701;-76
2023/06/10 15:07:06;;;;;;;;;10.00;8.00;;;;;;;;4985851;28;50576;-76
2023/06/10 15:09:31;;;;;;;;;7.00;7.00;;;;;;;;4986784;28;49747;-78
2023/06/10 15:11:57;;;;;;;;;7.25;7.25;;;;;;;;4987332;28;49864;-76
2023/06/10 15:14:22;;;;;;;;;8.50;8.50;;;;;;;;4980762;28;50074;-76
2023/06/10 15:16:47;;;;;;;;;8.50;8.00;;;;;;;;4987144;28;51598;-80
2023/06/10 15:19:12;;;;;;;;;10.50;8.75;;;;;;;;4987790;28;49723;-76
2023/06/10 15:21:37;;;;;;;;;9.75;9.50;;;;;;;;4990077;28;50135;-77
2023/06/10 15:24:03;;;;;;;;;8.50;8.50;;;;;;;;4973463;28;50398;-78
2023/06/10 15:26:28;;;;;;;;;9.75;9.00;;;;;;;;4986758;28;49761;-76
2023/06/10 15:28:53;;;;;;;;;9.50;9.00;;;;;;;;4985245;28;50281;-77
2023/06/10 15:31:18;;;;;;;;;8.00;7.75;;;;;;;;4981944;28;50946;-77
2023/06/10 15:33:44;;;;;;;;;9.00;8.00;;;;;;;;4984156;28;50221;-77
2023/06/10 15:36:09;;;;;;;;;8.25;8.25;;;;;;;;4980127;28;51512;-77
2023/06/10 15:38:34;;;;;;;;;10.50;10.50;;;;;;;;4979575;28;50114;-76
2023/06/10 15:40:59;;;;;;;;;9.50;9.50;;;;;;;;4978795;28;50005;-79
2023/06/10 15:43:25;;;;;;;;;8.25;8.25;;;;;;;;4985141;28;49958;-82
2023/06/10 15:45:50;;;;;;;;;9.25;8.75;;;;;;;;4984467;28;50758;-75
2023/06/10 15:48:15;;;;;;;;;10.50;10.50;;;;;;;;4982784;28;49833;-75
2023/06/10 15:50:40;;;;;;;;;11.00;10.00;;;;;;;;4984102;28;50739;-75
2023/06/10 15:53:06;;;;;;;;;8.25;8.00;;;;;;;;4987069;28;50033;-74
2023/06/10 15:55:31;;;;;;;;;8.50;8.50;;;;;;;;4982966;28;50657;-75
2023/06/10 15:58:00;;;;;;;;;8.25;7.25;;;;;;;;4979200;28;49700;-74
2023/06/10 16:00:25;;;;;;;;;9.50;9.50;;;;;;;;4983431;28;49934;-75
2023/06/10 16:02:50;;;;;;;;;9.00;8.00;;;;;;;;4982687;28;50410;-74
2023/06/10 16:05:16;;;;;;;;;10.25;10.25;;;;;;;;4974985;28;50878;-75
2023/06/10 16:07:41;;;;;;;;;11.00;10.00;;;;;;;;4988519;28;49755;-74
2023/06/10 16:10:06;;;;;;;;;7.50;7.25;;;;;;;;4980818;28;49752;-74
2023/06/10 16:12:31;;;;;;;;;9.00;8.50;;;;;;;;4979986;28;50187;-75
2023/06/10 16:14:57;;;;;;;;;6.25;6.25;;;;;;;;4984488;28;50908;-74
2023/06/10 16:17:22;;;;;;;;;9.50;9.50;;;;;;;;4971629;28;49896;-77
2023/06/10 16:19:47;;;;;;;;;7.50;7.50;;;;;;;;4978037;28;50144;-77
2023/06/10 16:22:13;;;;;;;;;9.50;9.00;;;;;;;;4984899;28;49867;-73
2023/06/10 16:24:38;;;;;;;;;6.25;6.25;;;;;;;;4983976;28;52000;-77
2023/06/10 16:27:03;;;;;;;;;8.50;8.50;;;;;;;;4973601;28;49828;-76
2023/06/10 16:29:28;;;;;;;;;10.75;10.00;;;;;;;;4977054;28;50000;-77
2023/06/10 16:31:54;;;;;;;;;7.75;7.25;;;;;;;;4981928;28;50102;-75
2023/06/10 16:34:19;;;;;;;;;8.75;8.75;;;;;;;;4986518;28;50491;-76
2023/06/10 16:36:44;;;;;;;;;8.00;8.00;;;;;;;;4979752;28;49781;-76
2023/06/10 16:39:10;;;;;;;;;7.25;7.25;;;;;;;;4985426;28;50178;-76
2023/06/10 16:41:35;;;;;;;;;8.50;8.50;;;;;;;;4987196;28;49671;-75
2023/06/10 16:44:00;;;;;;;;;6.50;6.50;;;;;;;;4979754;28;50649;-76
2023/06/10 16:46:25;;;;;;;;;9.25;8.75;;;;;;;;4980535;28;49991;-74
2023/06/10 16:48:50;;;;;;;;;8.75;8.75;;;;;;;;4980809;28;49852;-73
2023/06/10 16:51:16;;;;;;;;;8.25;8.25;;;;;;;;4976873;28;50778;-72
2023/06/10 16:53:41;;;;;;;;;8.50;7.75;;;;;;;;4985505;28;51544;-73
2023/06/10 16:56:06;;;;;;;;;11.00;11.00;;;;;;;;4975830;28;49874;-73
2023/06/10 16:58:31;;;;;;;;;11.75;10.25;;;;;;;;4983317;28;50193;-74
2023/06/10 17:01:01;;;;;;;;;8.75;8.75;;;;;;;;4988180;28;50135;-73
2023/06/10 17:03:26;;;;;;;;;8.50;8.50;;;;;;;;4982750;28;50490;-73
2023/06/10 17:05:51;;;;;;;;;8.25;8.25;;;;;;;;4988460;28;50105;-77
2023/06/10 17:08:16;;;;;;;;;7.50;7.50;;;;;;;;4989271;28;49801;-74
2023/06/10 17:10:42;;;;;;;;;9.00;7.75;;;;;;;;4986132;28;50114;-74
2023/06/10 17:13:08;;;;;;;;;10.25;8.75;;;;;;;;4985822;28;51556;-76
2023/06/10 17:15:33;;;;;;;;;11.75;10.25;;;;;;;;4985248;28;50286;-75
2023/06/10 17:17:58;;;;;;;;;10.00;8.25;;;;;;;;4978285;28;50538;-75
2023/06/10 17:20:23;;;;;;;;;8.25;8.25;;;;;;;;4988524;28;50167;-74
2023/06/10 17:22:48;;;;;;;;;56.75;45.50;;;;;;;;4988634;28;51525;-73
2023/06/10 17:25:13;;;;;;;;;47.50;40.25;;;;;;;;4985438;28;49997;-74
2023/06/10 17:27:39;;;;;;;;;19.25;18.75;;;;;;;;4982993;28;49923;-75
2023/06/10 17:30:04;;;;;;;;;24.75;23.00;;;;;;;;4986335;28;50084;-76
2023/06/10 17:32:30;;;;;;;;;14.25;13.00;;;;;;;;4984742;28;51792;-76
2023/06/10 17:34:55;;;;;;;;;10.00;8.75;;;;;;;;4984357;28;49748;-72
2023/06/10 17:37:21;;;;;;;;;12.25;10.00;;;;;;;;4987241;28;49963;-73
2023/06/10 17:39:46;;;;;;;;;10.25;10.25;;;;;;;;4987963;28;50027;-71
2023/06/10 17:42:11;;;;;;;;;8.50;8.00;;;;;;;;4988014;28;51497;-73
2023/06/10 17:44:36;;;;;;;;;8.25;8.25;;;;;;;;4984854;28;49841;-74
2023/06/10 17:47:02;;;;;;;;;11.75;11.00;;;;;;;;4987618;28;50472;-73
2023/06/10 17:49:27;;;;;;;;;9.50;8.25;;;;;;;;4981658;28;50018;-73
2023/06/10 17:51:52;;;;;;;;;9.00;9.00;;;;;;;;4984107;28;50328;-78
2023/06/10 17:54:20;;;;;;;;;5.75;5.75;;;;;;;;4987138;28;50224;-77
2023/06/10 17:56:46;;;;;;;;;11.50;9.75;;;;;;;;4987317;28;49908;-77
2023/06/10 17:59:11;;;;;;;;;8.00;6.00;;;;;;;;4985714;28;49737;-75
2023/06/10 18:01:36;;;;;;;;;7.00;7.00;;;;;;;;4987166;28;51812;-76
2023/06/10 18:04:04;;;;;;;;;6.00;6.00;;;;;;;;4984024;28;49658;-77
2023/06/10 18:06:30;;;;;;;;;8.25;7.25;;;;;;;;4988480;28;50323;-74
2023/06/10 18:08:55;;;;;;;;;10.75;9.00;;;;;;;;4982187;28;50067;-75
2023/06/10 18:11:21;;;;;;;;;8.50;7.50;;;;;;;;4982261;28;51517;-76
2023/06/10 18:13:46;;;;;;;;;9.50;8.75;;;;;;;;4985905;28;49884;-74
2023/06/10 18:16:12;;;;;;;;;7.50;7.50;;;;;;;;4986251;28;50155;-75
2023/06/10 18:18:37;;;;;;;;;12.25;12.25;;;;;;;;4978870;28;50024;-74
2023/06/10 18:21:02;;;;;;;;;10.25;9.00;;;;;;;;4984292;28;50554;-73
2023/06/10 18:23:27;;;;;;;;;20.25;16.25;;;;;;;;4978328;28;49792;-74
2023/06/10 18:25:52;;;;;;;;;9.75;9.75;;;;;;;;4984052;28;49821;-72
2023/06/10 18:28:18;;;;;;;;;9.50;8.50;;;;;;;;4989908;28;49730;-75
2023/06/10 18:30:43;;;;;;;;;16.50;16.50;;;;;;;;4979865;28;50242;-73
2023/06/10 18:33:08;;;;;;;;;21.00;17.50;;;;;;;;4987748;28;49771;-73
2023/06/10 18:35:33;;;;;;;;;20.75;18.50;;;;;;;;4989014;28;49928;-73
2023/06/10 18:37:58;;;;;;;;;13.50;13.50;;;;;;;;4991226;28;50050;-76
2023/06/10 18:40:24;;;;;;;;;12.25;11.50;;;;;;;;4983942;28;50532;-74
2023/06/10 18:42:49;;;;;;;;;20.50;20.50;;;;;;;;4987469;28;50040;-75
2023/06/10 18:45:14;;;;;;;;;21.25;19.00;;;;;;;;4987765;28;49883;-76
2023/06/10 18:47:40;;;;;;;;;31.50;29.50;;;;;;;;4982571;28;50107;-73
2023/06/10 18:50:05;;;;;;;;;20.00;18.25;;;;;;;;4987129;28;51805;-75
2023/06/10 18:52:30;;;;;;;;;34.00;31.25;;;;;;;;4988817;28;50019;-75
2023/06/10 18:54:56;;;;;;;;;27.00;27.00;;;;;;;;4990658;28;50198;-76
2023/06/10 18:57:21;;;;;;;;;55.75;44.50;;;;;;;;4986277;28;49694;-76
2023/06/10 18:59:46;;;;;;;;;62.50;51.00;;;;;;;;4987351;28;50569;-75
2023/06/10 19:02:11;;;;;;;;;54.00;46.00;;;;;;;;4982462;28;50003;-75
2023/06/10 19:04:36;;;;;;;;;21.00;20.50;;;;;;;;4990047;28;49838;-73
2023/06/10 19:07:02;;;;;;;;;30.25;29.25;;;;;;;;4988154;28;49749;-72
2023/06/10 19:09:27;;;;;;;;;25.75;25.25;;;;;;;;4979712;28;50562;-72
2023/06/10 19:11:52;;;;;;;;;25.50;24.25;;;;;;;;4985484;28;50180;-73
2023/06/10 19:14:17;;;;;;;;;32.75;31.75;;;;;;;;4983912;28;50055;-72
2023/06/10 19:16:43;;;;;;;;;42.00;37.25;;;;;;;;4980815;28;50024;-73
2023/06/10 19:19:08;;;;;;;;;26.25;23.75;;;;;;;;4989914;28;49805;-73
2023/06/10 19:21:33;;;;;;;;;14.50;14.00;;;;;;;;4987013;28;49851;-73
2023/06/10 19:23:58;;;;;;;;;22.50;21.25;;;;;;;;4985718;28;49752;-72
2023/06/10 19:26:23;;;;;;;;;13.50;13.50;;;;;;;;4990206;28;50225;-73
2023/06/10 19:28:49;;;;;;;;;10.50;10.00;;;;;;;;4987048;28;50482;-73
2023/06/10 19:31:14;;;;;;;;;14.00;14.00;;;;;;;;4990001;28;50074;-73
2023/06/10 19:33:39;;;;;;;;;9.00;8.00;;;;;;;;4989252;28;49822;-75
2023/06/10 19:36:05;;;;;;;;;11.50;9.75;;;;;;;;4990012;28;49824;-75
2023/06/10 19:38:30;;;;;;;;;6.25;6.25;;;;;;;;4988898;28;50696;-74
2023/06/10 19:40:55;;;;;;;;;10.75;10.75;;;;;;;;4989650;28;49803;-74
2023/06/10 19:43:21;;;;;;;;;29.00;28.25;;;;;;;;4983443;28;49963;-74
2023/06/10 19:45:46;;;;;;;;;18.50;18.50;;;;;;;;4989758;28;49641;-75
2023/06/10 19:48:12;;;;;;;;;29.00;26.50;;;;;;;;4984799;28;49855;-74
2023/06/10 19:50:38;;;;;;;;;22.25;22.00;;;;;;;;4987886;28;50160;-74
2023/06/10 19:53:03;;;;;;;;;24.25;23.00;;;;;;;;4984651;28;49716;-77
2023/06/10 19:55:28;;;;;;;;;14.00;13.50;;;;;;;;4989721;28;49646;-73
2023/06/10 20:36:51;;;;;;;;;12.00;11.75;;;;;;;;4644626;28;53233;-71
2023/06/10 20:39:16;;;;;;;;;8.75;8.75;;;;;;;;4988386;28;49967;-71
2023/06/10 20:41:41;;;;;;;;;9.00;9.00;;;;;;;;4988950;28;49898;-70
2023/06/10 20:44:07;;;;;;;;;10.50;10.50;;;;;;;;4985970;28;50921;-70
2023/06/10 20:46:32;;;;;;;;;10.25;9.75;;;;;;;;4989349;28;50025;-70
2023/06/10 20:48:57;;;;;;;;;11.50;11.50;;;;;;;;4984042;28;51383;-70
2023/06/10 20:51:22;;;;;;;;;10.75;9.50;;;;;;;;4984248;28;49707;-71
2023/06/10 21:06:55;;;;;;;;;11.50;11.00;;;;;;;;4777936;26;49755;-72
2023/06/10 21:09:20;;;;;;;;;12.75;11.50;;;;;;;;4986273;28;50639;-73
2023/06/10 21:11:45;;;;;;;;;13.75;13.25;;;;;;;;4982552;28;50044;-73
2023/06/10 21:14:11;;;;;;;;;11.25;10.50;;;;;;;;4984381;28;49875;-73
2023/06/10 21:16:37;;;;;;;;;10.25;9.25;;;;;;;;4985412;28;50214;-73
2023/06/10 21:19:02;;;;;;;;;9.50;9.50;;;;;;;;4985821;28;52371;-73
2023/06/10 21:21:27;;;;;;;;;11.00;10.50;;;;;;;;4985309;28;49781;-73
2023/06/10 21:23:54;;;;;;;;;14.50;12.00;;;;;;;;4988152;28;49884;-73
2023/06/10 21:26:19;;;;;;;;;14.50;13.25;;;;;;;;4983701;28;50108;-73
2023/06/10 21:28:44;;;;;;;;;13.25;13.25;;;;;;;;4984909;28;50046;-73
2023/06/10 21:31:09;;;;;;;;;12.75;10.00;;;;;;;;4985242;28;49805;-73
2023/06/10 21:33:34;;;;;;;;;13.25;13.25;;;;;;;;4981573;28;49723;-73
2023/06/10 21:36:00;;;;;;;;;12.00;11.50;;;;;;;;4987750;28;50076;-73
2023/06/10 21:38:26;;;;;;;;;10.25;10.25;;;;;;;;4986852;28;50879;-73
2023/06/10 21:40:51;;;;;;;;;10.00;10.00;;;;;;;;4986888;28;50108;-72
2023/06/10 21:43:16;;;;;;;;;14.50;13.00;;;;;;;;4988055;28;50219;-73
2023/06/10 21:45:41;;;;;;;;;13.00;12.75;;;;;;;;4988435;28;49718;-73
2023/06/10 21:48:07;;;;;;;;;11.75;11.75;;;;;;;;4988267;28;49890;-72
2023/06/10 21:50:32;;;;;;;;;11.75;11.75;;;;;;;;4985904;28;49762;-73
2023/06/10 21:52:57;;;;;;;;;11.00;10.25;;;;;;;;4981193;28;49903;-73
2023/06/10 21:55:22;;;;;;;;;12.25;11.00;;;;;;;;4982851;28;50119;-73
2023/06/10 21:57:47;;;;;;;;;10.50;8.75;;;;;;;;4981889;28;49953;-73
2023/06/10 22:00:13;;;;;;;;;10.75;10.75;;;;;;;;4988218;28;49810;-72
2023/06/10 22:02:39;;;;;;;;;19.25;15.75;;;;;;;;4978432;28;49768;-72
2023/06/10 22:05:05;;;;;;;;;15.00;15.00;;;;;;;;4991246;28;50011;-72
2023/06/10 22:07:30;;;;;;;;;16.75;14.25;;;;;;;;4990981;28;51763;-73
2023/06/10 22:09:55;;;;;;;;;13.00;11.75;;;;;;;;4991567;28;49911;-73
2023/06/10 22:12:20;;;;;;;;;12.00;12.00;;;;;;;;4991492;28;49850;-73
2023/06/10 22:14:45;;;;;;;;;10.00;8.50;;;;;;;;4991691;28;49688;-72
2023/06/10 22:17:11;;;;;;;;;10.25;10.25;;;;;;;;4991227;28;50960;-74
2023/06/10 22:19:38;;;;;;;;;13.00;11.50;;;;;;;;4990960;28;49806;-73
2023/06/10 22:22:04;;;;;;;;;12.50;12.50;;;;;;;;4991619;28;49700;-73
2023/06/10 22:24:29;;;;;;;;;14.25;11.50;;;;;;;;4991325;28;50233;-73
2023/06/10 22:26:55;;;;;;;;;10.25;10.25;;;;;;;;4988985;28;50712;-73
2023/06/10 22:29:20;;;;;;;;;11.75;10.50;;;;;;;;4991056;28;49992;-73
2023/06/10 22:31:45;;;;;;;;;11.25;11.00;;;;;;;;4991226;28;50011;-73
2023/06/10 22:34:10;;;;;;;;;13.50;13.25;;;;;;;;4983862;28;49703;-73
2023/06/10 22:36:36;;;;;;;;;10.50;10.50;;;;;;;;4990861;28;51879;-73
2023/06/10 22:39:01;;;;;;;;;12.75;12.00;;;;;;;;4990952;28;49809;-76
2023/06/10 22:41:26;;;;;;;;;11.25;11.00;;;;;;;;4987827;28;49689;-76
2023/06/10 22:43:52;;;;;;;;;15.00;13.50;;;;;;;;4989705;28;49682;-75
2023/06/10 22:46:17;;;;;;;;;12.50;12.00;;;;;;;;4991097;28;51243;-74
2023/06/10 22:48:42;;;;;;;;;11.00;11.00;;;;;;;;4990536;28;49904;-74
2023/06/10 22:51:07;;;;;;;;;13.00;13.00;;;;;;;;4989390;28;49749;-75
2023/06/10 22:53:32;;;;;;;;;11.25;10.00;;;;;;;;4990971;28;50059;-75
2023/06/10 22:55:58;;;;;;;;;11.50;11.50;;;;;;;;4990701;28;50263;-75
2023/06/10 22:58:23;;;;;;;;;15.00;12.75;;;;;;;;4982313;28;49882;-74
2023/06/10 23:00:48;;;;;;;;;10.75;10.75;;;;;;;;4989853;28;49743;-74
2023/06/10 23:03:13;;;;;;;;;11.25;11.25;;;;;;;;4990721;28;50116;-74
2023/06/10 23:05:38;;;;;;;;;13.50;12.75;;;;;;;;4990650;28;50860;-75
2023/06/10 23:08:03;;;;;;;;;13.25;12.25;;;;;;;;4990526;28;49848;-74
2023/06/10 23:10:29;;;;;;;;;13.25;12.00;;;;;;;;4990967;28;49929;-74